createdAt,value
2022-10-18T00:00:16.848Z,1024.567653
2022-10-18T00:05:16.991Z,1024.479044
2022-10-18T00:10:16.928Z,1024.468544
2022-10-18T00:15:16.876Z,1024.485921
2022-10-18T00:20:17.035Z,1024.553124
2022-10-18T00:25:17.222Z,1024.538369
2022-10-18T00:30:16.989Z,1024.492136
2022-10-18T00:35:17.133Z,1024.540325
2022-10-18T00:40:17.128Z,1024.528761
2022-10-18T00:45:16.801Z,1024.589284
2022-10-18T00:50:16.985Z,1024.630829
2022-10-18T00:55:16.915Z,1024.600680
2022-10-18T01:00:16.843Z,1024.609323
2022-10-18T01:05:17.193Z,1024.532831
2022-10-18T01:10:17.408Z,1024.546291
2022-10-18T01:15:16.838Z,1024.532774
2022-10-18T01:20:16.834Z,1024.597791
2022-10-18T01:25:16.837Z,1024.544759
2022-10-18T01:30:17.207Z,1024.550326
2022-10-18T01:35:16.960Z,1024.539458
2022-10-18T01:40:17.117Z,1024.612568
2022-10-18T01:45:16.972Z,1024.714364
2022-10-18T01:50:17.104Z,1024.742411
2022-10-18T01:55:17.069Z,1024.748269
2022-10-18T02:00:16.813Z,1024.731147
2022-10-18T02:05:16.864Z,1024.743618
2022-10-18T02:10:16.909Z,1024.739702
2022-10-18T02:15:17.051Z,1024.664296
2022-10-18T02:20:17.088Z,1024.674674
2022-10-18T02:25:17.017Z,1024.732748
2022-10-18T02:30:16.919Z,1024.777311
2022-10-18T02:35:17.196Z,1024.872669
2022-10-18T02:40:16.808Z,1024.876313
2022-10-18T02:45:16.895Z,1024.869736
2022-10-18T02:50:17.197Z,1024.925736
2022-10-18T02:55:17.569Z,1024.967504
2022-10-18T03:00:17.281Z,1024.945584
2022-10-18T03:05:17.275Z,1024.965751
2022-10-18T03:10:16.818Z,1024.939620
2022-10-18T03:15:16.815Z,1024.913009
2022-10-18T03:20:16.957Z,1024.930775
2022-10-18T03:25:16.838Z,1024.905537
2022-10-18T03:30:16.900Z,1024.905255
2022-10-18T03:35:16.711Z,1024.828583
2022-10-18T03:40:16.897Z,1024.839773
2022-10-18T03:45:16.734Z,1024.861735
2022-10-18T03:50:16.792Z,1024.841836
2022-10-18T03:55:17.022Z,1024.845060
2022-10-18T04:00:16.942Z,1024.893056
2022-10-18T04:05:16.858Z,1024.930203
2022-10-18T04:10:17.187Z,1024.895383
2022-10-18T04:15:16.965Z,1024.929857
2022-10-18T04:20:16.993Z,1024.868424
2022-10-18T04:25:16.865Z,1024.785094
2022-10-18T04:30:17.314Z,1024.688212
2022-10-18T04:35:16.819Z,1024.604918
2022-10-18T04:40:16.921Z,1024.521222
2022-10-18T04:45:16.869Z,1024.555286
2022-10-18T04:50:16.914Z,1024.628312
2022-10-18T04:55:17.310Z,1024.666276
2022-10-18T05:00:17.489Z,1024.650733
2022-10-18T05:05:17.175Z,1024.596636
2022-10-18T05:10:17.407Z,1024.495699
2022-10-18T05:15:17.513Z,1024.330442
2022-10-18T05:20:16.880Z,1024.125660
2022-10-18T05:25:16.866Z,1024.041900
2022-10-18T05:30:16.860Z,1024.098346
2022-10-18T05:35:19.598Z,1024.085903
2022-10-18T05:40:19.223Z,1023.990344
2022-10-18T05:45:19.852Z,1023.894698
2022-10-18T05:50:19.541Z,1023.971535
2022-10-18T05:55:20.058Z,1024.024900
2022-10-18T06:00:19.187Z,1024.028965
2022-10-18T06:05:19.248Z,1024.111645
2022-10-18T06:10:19.373Z,1024.179667
2022-10-18T06:15:19.563Z,1024.160522
2022-10-18T06:20:19.381Z,1024.169167
2022-10-18T06:25:19.550Z,1024.083362
2022-10-18T06:30:19.574Z,1024.134290
2022-10-18T06:35:19.260Z,1024.172680
2022-10-18T06:40:19.414Z,1024.171248
2022-10-18T06:45:19.213Z,1024.188459
2022-10-18T06:50:16.858Z,1024.195760
2022-10-18T06:55:17.103Z,1024.182589
2022-10-18T07:00:16.854Z,1024.076922
2022-10-18T07:05:16.897Z,1024.004244
2022-10-18T07:10:17.166Z,1024.012197
2022-10-18T07:15:17.041Z,1023.983902
2022-10-18T07:20:17.013Z,1024.026364
2022-10-18T07:25:16.741Z,1024.264246
2022-10-18T07:30:16.964Z,1024.244851
2022-10-18T07:35:16.731Z,1024.316699
2022-10-18T07:40:17.280Z,1024.086737
2022-10-18T07:45:16.854Z,1024.047216
2022-10-18T07:50:16.768Z,1023.937045
2022-10-18T07:55:17.087Z,1023.820588
2022-10-18T08:00:16.902Z,1023.738742
2022-10-18T08:05:17.219Z,1023.618975
2022-10-18T08:10:17.331Z,1023.559555
2022-10-18T08:15:16.866Z,1023.489679
2022-10-18T08:20:29.739Z,1023.452821
2022-10-18T08:25:17.166Z,1023.335125
2022-10-18T08:30:16.737Z,1023.230819
2022-10-18T08:35:16.696Z,1023.173723
2022-10-18T08:40:16.785Z,1023.078757
2022-10-18T08:45:30.051Z,1023.010870
2022-10-18T08:50:16.766Z,1022.913884
2022-10-18T08:55:16.732Z,1022.882874
2022-10-18T09:00:16.901Z,1022.920641
2022-10-18T09:05:16.800Z,1023.107269
2022-10-18T09:10:16.798Z,1023.333319
2022-10-18T09:15:16.652Z,1023.118391
2022-10-18T09:20:16.709Z,1022.952087
2022-10-18T09:25:16.839Z,1023.091034
2022-10-18T09:30:16.829Z,1023.222116
2022-10-18T09:35:16.745Z,1023.158172
2022-10-18T09:40:19.038Z,1023.089982
2022-10-18T09:45:17.170Z,1023.268731
2022-10-18T09:50:17.103Z,1023.531657
2022-10-18T09:55:16.960Z,1023.334663
2022-10-18T10:00:16.821Z,1023.452054
2022-10-18T10:05:16.815Z,1023.694830
2022-10-18T10:10:17.173Z,1023.999812
2022-10-18T10:15:16.960Z,1024.041418
2022-10-18T10:20:16.683Z,1023.891242
2022-10-18T10:25:16.708Z,1023.779157
2022-10-18T10:30:16.886Z,1023.812096
2022-10-18T10:35:22.783Z,1023.870370
2022-10-18T10:40:22.067Z,1024.084700
2022-10-18T10:45:16.748Z,1024.204666
2022-10-18T10:50:16.654Z,1024.288847
2022-10-18T10:55:33.978Z,1024.270496
2022-10-18T11:00:16.703Z,1024.189662
2022-10-18T11:05:16.663Z,1024.209197
2022-10-18T11:10:16.759Z,1024.134006
2022-10-18T11:15:16.895Z,1024.045282
2022-10-18T11:20:16.904Z,1024.162780
2022-10-18T11:25:17.014Z,1024.213030
2022-10-18T11:30:16.967Z,1024.349010
2022-10-18T11:35:16.595Z,1024.368582
2022-10-18T11:40:17.486Z,1024.325927
2022-10-18T11:45:17.321Z,1024.290349
2022-10-18T11:50:16.864Z,1024.331186
2022-10-18T11:55:16.638Z,1024.347523
2022-10-18T12:00:16.864Z,1024.418477
2022-10-18T12:05:24.799Z,1024.513615
2022-10-18T12:10:22.151Z,1024.581354
2022-10-18T12:15:16.720Z,1024.564265
2022-10-18T12:20:16.780Z,1024.569524
2022-10-18T12:25:16.926Z,1024.504998
2022-10-18T12:30:16.662Z,1024.526542
2022-10-18T12:35:16.630Z,1024.463094
2022-10-18T12:40:18.844Z,1024.361087
2022-10-18T12:45:16.946Z,1024.403978
2022-10-18T12:50:16.914Z,1024.421018
2022-10-18T12:55:17.839Z,1024.406933
2022-10-18T13:00:16.629Z,1024.440242
2022-10-18T13:05:28.163Z,1024.446087
2022-10-18T13:10:16.668Z,1024.468353
2022-10-18T13:15:25.566Z,1024.453162
2022-10-18T13:20:31.769Z,1024.400597
2022-10-18T13:25:16.659Z,1024.350535
2022-10-18T13:30:16.997Z,1024.293019
2022-10-18T13:35:16.544Z,1024.298321
2022-10-18T13:40:16.737Z,1024.371071
2022-10-18T13:45:16.657Z,1024.436018
2022-10-18T13:50:17.104Z,1024.385835
2022-10-18T13:55:16.584Z,1024.438220
2022-10-18T14:00:17.101Z,1024.541818
2022-10-18T14:05:25.241Z,1024.628417
2022-10-18T14:10:17.016Z,1024.729120
2022-10-18T14:15:17.216Z,1024.740273
2022-10-18T14:20:16.557Z,1024.622716
2022-10-18T14:25:16.641Z,1024.613549
2022-10-18T14:30:16.627Z,1024.694016
2022-10-18T14:35:33.463Z,1024.728846
2022-10-18T14:40:16.585Z,1024.675892
2022-10-18T14:45:16.819Z,1024.645322
2022-10-18T14:50:16.880Z,1024.707118
2022-10-18T14:55:16.798Z,1024.756240
2022-10-18T15:00:16.758Z,1024.752421
2022-10-18T15:05:16.749Z,1024.770783
2022-10-18T15:10:16.636Z,1024.740351
2022-10-18T15:15:16.672Z,1024.726937
2022-10-18T15:20:16.567Z,1024.741940
2022-10-18T15:25:16.858Z,1024.832813
2022-10-18T15:30:16.923Z,1024.845198
2022-10-18T15:35:16.971Z,1024.921783
2022-10-18T15:40:17.204Z,1024.980222
2022-10-18T15:45:16.612Z,1024.929658
2022-10-18T15:50:17.104Z,1024.974296
2022-10-18T15:55:16.580Z,1025.063906
2022-10-18T16:00:16.641Z,1025.093875
2022-10-18T16:05:16.557Z,1025.159777
2022-10-18T16:10:16.544Z,1025.145378
2022-10-18T16:15:16.926Z,1025.036193
2022-10-18T16:20:16.808Z,1025.016227
2022-10-18T16:25:16.744Z,1025.062762
2022-10-18T16:30:16.768Z,1025.048469
2022-10-18T16:35:16.632Z,1025.062833
2022-10-18T16:40:16.747Z,1025.076668
2022-10-18T16:45:16.543Z,1025.054410
2022-10-18T16:50:16.580Z,1025.046219
2022-10-18T16:55:16.649Z,1025.149775
2022-10-18T17:00:17.003Z,1025.253022
2022-10-18T17:05:16.948Z,1025.330589
2022-10-18T17:10:16.734Z,1025.359534
2022-10-18T17:15:16.760Z,1025.400957
2022-10-18T17:20:16.574Z,1025.429115
2022-10-18T17:25:16.541Z,1025.399569
2022-10-18T17:30:16.882Z,1025.444782
2022-10-18T17:35:16.889Z,1025.479272
2022-10-18T17:40:16.581Z,1025.433148
2022-10-18T17:45:16.554Z,1025.390363
2022-10-18T17:50:16.632Z,1025.418453
2022-10-18T17:55:17.256Z,1025.514457
2022-10-18T18:00:17.108Z,1025.666926
2022-10-18T18:05:16.538Z,1025.704690
2022-10-18T18:10:16.654Z,1025.733891
2022-10-18T18:15:16.720Z,1025.732029
2022-10-18T18:20:16.746Z,1025.716449
2022-10-18T18:25:16.752Z,1025.733227
2022-10-18T18:30:16.702Z,1025.698512
2022-10-18T18:35:16.516Z,1025.652853
2022-10-18T18:40:16.732Z,1025.651183
2022-10-18T18:45:16.417Z,1025.648717
2022-10-18T18:50:16.618Z,1025.637743
2022-10-18T18:55:16.615Z,1025.702488
2022-10-18T19:00:16.781Z,1025.659917
2022-10-18T19:05:16.451Z,1025.643199
2022-10-18T19:10:16.580Z,1025.643098
2022-10-18T19:15:16.547Z,1025.699067
2022-10-18T19:20:16.571Z,1025.671339
2022-10-18T19:25:16.670Z,1025.673519
2022-10-18T19:30:16.491Z,1025.621427
2022-10-18T19:35:16.791Z,1025.670213
2022-10-18T19:40:16.534Z,1025.720097
2022-10-18T19:45:16.826Z,1025.816326
2022-10-18T19:50:16.969Z,1025.876215
2022-10-18T19:55:16.836Z,1025.876981
2022-10-18T20:00:19.409Z,1025.867241
2022-10-18T20:05:16.599Z,1025.860486
2022-10-18T20:10:16.464Z,1025.785234
2022-10-18T20:15:16.537Z,1025.791400
2022-10-18T20:20:16.606Z,1025.855346
2022-10-18T20:25:16.564Z,1025.874663
2022-10-18T20:30:16.705Z,1025.888062
2022-10-18T20:35:16.532Z,1025.862321
2022-10-18T20:40:16.570Z,1025.751944
2022-10-18T20:45:16.649Z,1025.651707
2022-10-18T20:50:16.486Z,1025.673473
2022-10-18T20:55:16.451Z,1025.731661
2022-10-18T21:00:16.746Z,1025.813478
2022-10-18T21:05:16.498Z,1025.846404
2022-10-18T21:10:16.678Z,1025.862916
2022-10-18T21:15:16.823Z,1025.927121
2022-10-18T21:20:17.219Z,1026.005307
2022-10-18T21:25:16.934Z,1026.032161
2022-10-18T21:30:17.221Z,1026.028010
2022-10-18T21:35:16.488Z,1026.050207
2022-10-18T21:40:16.521Z,1026.073044
2022-10-18T21:45:16.451Z,1026.139410
2022-10-18T21:50:16.539Z,1026.147201
2022-10-18T21:55:16.785Z,1026.207772
2022-10-18T22:00:17.024Z,1026.211748
2022-10-18T22:05:16.444Z,1026.212674
2022-10-18T22:10:16.508Z,1026.182867
2022-10-18T22:15:16.552Z,1026.166780
2022-10-18T22:20:16.659Z,1026.071108
2022-10-18T22:25:16.389Z,1026.118752
2022-10-18T22:30:16.378Z,1026.193918
2022-10-18T22:35:16.718Z,1026.217418
2022-10-18T22:40:16.492Z,1026.160391
2022-10-18T22:45:16.434Z,1026.140909
2022-10-18T22:50:16.374Z,1026.098985
2022-10-18T22:55:16.404Z,1026.058264
2022-10-18T23:00:16.869Z,1026.117352
2022-10-18T23:05:16.411Z,1026.118612
2022-10-18T23:10:16.663Z,1026.109006
2022-10-18T23:15:16.549Z,1026.121885
2022-10-18T23:20:16.415Z,1026.091742
2022-10-18T23:25:16.525Z,1026.159889
2022-10-18T23:30:16.804Z,1026.128399
2022-10-18T23:35:16.625Z,1026.162934
2022-10-18T23:40:16.472Z,1026.284175
2022-10-18T23:45:16.826Z,1026.341036
2022-10-18T23:50:16.493Z,1026.387292
2022-10-18T23:55:16.710Z,1026.451871
